Time;durP1;ratioP1;P1;durP2;ratioP2;P2;SDS_P1;SDS_P2;PMS_P1;PMS_P2;Temp;Humidity;BMP_temperature;BMP_pressure;BME280_temperature;BME280_humidity;BME280_pressure;Samples;Min_cycle;Max_cycle;Signal;HPM_P1;HPM_P2
2022/05/21 00:02:00;;;;;;;6.18;4.20;;;;;;;;;;10568759;28;20304;-78
2022/05/21 00:07:00;;;;;;;5.17;4.10;;;;;;;;;;10581951;28;20081;-77
2022/05/21 00:12:01;;;;;;;6.33;5.20;;;;;;;;;;10583301;28;20095;-78
2022/05/21 00:17:02;;;;;;;9.32;5.93;;;;;;;;;;10511744;28;20378;-80
2022/05/21 00:22:03;;;;;;;5.50;4.85;;;;;;;;;;10541222;28;20066;-78
2022/05/21 00:27:04;;;;;;;5.70;4.20;;;;;;;;;;10540440;28;20111;-77
2022/05/21 00:32:05;;;;;;;5.18;3.88;;;;;;;;;;10524163;28;20036;-80
2022/05/21 00:37:06;;;;;;;4.25;3.85;;;;;;;;;;10567707;28;20040;-78
2022/05/21 00:42:09;;;;;;;4.67;4.00;;;;;;;;;;10544721;28;20451;-77
2022/05/21 00:47:10;;;;;;;6.30;4.05;;;;;;;;;;10554782;28;20358;-78
2022/05/21 00:52:19;;;;;;;4.43;4.00;;;;;;;;;;10520940;28;20032;-77
2022/05/21 00:57:29;;;;;;;5.65;3.90;;;;;;;;;;10515178;28;20040;-78
2022/05/21 01:02:35;;;;;;;4.00;3.63;;;;;;;;;;10513116;28;20379;-77
2022/05/21 01:07:39;;;;;;;7.82;3.75;;;;;;;;;;11586409;22;20075;-80
2022/05/21 01:12:47;;;;;;;5.43;3.85;;;;;;;;;;10368832;28;20118;-78
2022/05/21 01:17:50;;;;;;;6.20;4.35;;;;;;;;;;10419458;28;20076;-80
2022/05/21 01:22:52;;;;;;;4.93;3.83;;;;;;;;;;10448950;28;20061;-78
2022/05/21 01:27:55;;;;;;;4.60;4.05;;;;;;;;;;10467818;28;20470;-78
2022/05/21 01:32:57;;;;;;;4.97;4.20;;;;;;;;;;10451491;28;20071;-79
2022/05/21 01:37:58;;;;;;;4.78;4.00;;;;;;;;;;10422530;28;20056;-78
2022/05/21 01:48:21;;;;;;;5.75;3.65;;;;;;;;;;10477602;28;20134;-79
2022/05/21 01:53:22;;;;;;;6.15;3.85;;;;;;;;;;10463058;28;20140;-76
2022/05/21 01:58:23;;;;;;;4.97;4.07;;;;;;;;;;10429017;28;20485;-78
2022/05/21 02:03:24;;;;;;;4.13;3.72;;;;;;;;;;10495623;28;20052;-77
2022/05/21 02:08:25;;;;;;;4.45;3.67;;;;;;;;;;10435225;28;20048;-76
2022/05/21 02:13:29;;;;;;;3.58;3.28;;;;;;;;;;10471326;28;20048;-78
2022/05/21 02:18:30;;;;;;;4.50;4.05;;;;;;;;;;10451629;28;20041;-78
2022/05/21 02:23:32;;;;;;;4.20;3.80;;;;;;;;;;10472215;28;20127;-77
2022/05/21 02:28:32;;;;;;;5.37;4.00;;;;;;;;;;10466299;28;20135;-78
2022/05/21 02:33:32;;;;;;;5.00;4.50;;;;;;;;;;10476749;28;20130;-79
2022/05/21 02:43:51;;;;;;;3.90;3.45;;;;;;;;;;10467848;28;20336;-78
2022/05/21 02:48:52;;;;;;;3.83;3.20;;;;;;;;;;10449898;28;20379;-78
2022/05/21 02:53:52;;;;;;;4.07;3.57;;;;;;;;;;10440605;28;20589;-78
2022/05/21 02:58:52;;;;;;;3.60;3.30;;;;;;;;;;10487036;28;20287;-78
2022/05/21 03:03:53;;;;;;;4.83;3.57;;;;;;;;;;10488171;28;20028;-77
2022/05/21 03:14:12;;;;;;;4.10;3.30;;;;;;;;;;10516799;28;20044;-79
2022/05/21 03:19:12;;;;;;;4.00;3.67;;;;;;;;;;10485057;28;20172;-80
2022/05/21 03:24:13;;;;;;;3.75;3.35;;;;;;;;;;10488425;28;20601;-78
2022/05/21 03:29:14;;;;;;;4.45;3.53;;;;;;;;;;10447572;28;20045;-77
2022/05/21 03:34:14;;;;;;;4.93;3.73;;;;;;;;;;10475978;28;20052;-78
2022/05/21 03:39:15;;;;;;;3.63;3.33;;;;;;;;;;10445941;28;20045;-78
2022/05/21 03:44:16;;;;;;;3.67;3.37;;;;;;;;;;10486299;28;20048;-78
2022/05/21 03:49:16;;;;;;;3.55;3.25;;;;;;;;;;10437261;28;20040;-77
2022/05/21 03:54:19;;;;;;;5.10;3.35;;;;;;;;;;10482138;28;20097;-81
2022/05/21 03:59:21;;;;;;;5.25;3.83;;;;;;;;;;10499668;28;20028;-80
2022/05/21 04:04:21;;;;;;;4.93;3.78;;;;;;;;;;10505241;28;20079;-81
2022/05/21 04:09:21;;;;;;;4.80;3.90;;;;;;;;;;10471922;28;20140;-79
2022/05/21 04:14:27;;;;;;;6.50;4.80;;;;;;;;;;10465111;28;20044;-77
2022/05/21 04:19:28;;;;;;;5.30;4.47;;;;;;;;;;10437996;28;20127;-77
2022/05/21 04:24:28;;;;;;;4.57;3.90;;;;;;;;;;10467685;28;20045;-77
2022/05/21 04:29:30;;;;;;;5.63;3.72;;;;;;;;;;10447306;28;20053;-77
2022/05/21 04:34:31;;;;;;;6.25;3.83;;;;;;;;;;10474181;28;20136;-77
2022/05/21 04:39:31;;;;;;;5.63;3.83;;;;;;;;;;10426820;28;20120;-77
2022/05/21 04:44:34;;;;;;;5.85;4.05;;;;;;;;;;10452343;28;20103;-76
2022/05/21 04:49:34;;;;;;;4.50;4.10;;;;;;;;;;10479788;28;20051;-76
2022/05/21 04:54:38;;;;;;;3.95;3.55;;;;;;;;;;10474259;28;20684;-79
2022/05/21 04:59:38;;;;;;;4.17;3.77;;;;;;;;;;10465971;28;20044;-78
2022/05/21 05:04:38;;;;;;;7.63;4.80;;;;;;;;;;10471452;28;20045;-77
2022/05/21 05:09:42;;;;;;;5.40;4.18;;;;;;;;;;10479030;28;20048;-76
2022/05/21 05:14:43;;;;;;;6.40;4.68;;;;;;;;;;10492628;28;20064;-78
2022/05/21 05:19:43;;;;;;;5.30;4.63;;;;;;;;;;10445872;28;20045;-78
2022/05/21 05:24:43;;;;;;;4.07;3.67;;;;;;;;;;10477565;28;20356;-79
2022/05/21 05:29:46;;;;;;;4.20;3.80;;;;;;;;;;10456320;28;20339;-80
2022/05/21 05:34:46;;;;;;;4.63;3.40;;;;;;;;;;10448668;28;20735;-78
2022/05/21 05:39:47;;;;;;;5.30;3.60;;;;;;;;;;10466599;28;20129;-78
2022/05/21 05:44:47;;;;;;;4.13;3.40;;;;;;;;;;10466176;28;20492;-79
2022/05/21 05:49:50;;;;;;;4.90;3.30;;;;;;;;;;10468929;28;20088;-80
2022/05/21 05:54:54;;;;;;;4.22;3.83;;;;;;;;;;10472823;28;20045;-81
2022/05/21 05:59:56;;;;;;;5.50;3.33;;;;;;;;;;10519337;28;20084;-82
2022/05/21 06:04:57;;;;;;;3.47;2.70;;;;;;;;;;10465514;28;20447;-82
2022/05/21 06:10:01;;;;;;;3.30;2.80;;;;;;;;;;10444229;28;20498;-79
2022/05/21 06:15:03;;;;;;;3.20;2.90;;;;;;;;;;10439170;28;20087;-80
2022/05/21 06:20:04;;;;;;;3.50;2.90;;;;;;;;;;10469313;28;20131;-79
2022/05/21 06:25:05;;;;;;;4.25;2.95;;;;;;;;;;10442810;28;20056;-70
2022/05/21 06:30:08;;;;;;;3.10;2.70;;;;;;;;;;10464863;28;20083;-72
2022/05/21 06:35:10;;;;;;;3.17;2.83;;;;;;;;;;10448482;28;20182;-68
2022/05/21 06:40:11;;;;;;;5.60;2.97;;;;;;;;;;10461105;28;20056;-70
2022/05/21 06:45:12;;;;;;;4.18;2.45;;;;;;;;;;10451558;28;20076;-69
2022/05/21 06:50:12;;;;;;;3.20;2.70;;;;;;;;;;10453267;28;20612;-71
2022/05/21 06:55:13;;;;;;;4.63;2.60;;;;;;;;;;10467013;28;20470;-71
2022/05/21 07:00:14;;;;;;;3.28;2.28;;;;;;;;;;10449007;28;20361;-72
2022/05/21 07:10:33;;;;;;;3.10;2.50;;;;;;;;;;10446173;28;20041;-72
2022/05/21 07:15:34;;;;;;;3.40;1.92;;;;;;;;;;10460053;28;20102;-69
2022/05/21 07:20:35;;;;;;;2.35;2.10;;;;;;;;;;10453609;28;20037;-70
2022/05/21 07:25:35;;;;;;;2.53;2.20;;;;;;;;;;10468011;28;20055;-71
2022/05/21 07:30:35;;;;;;;4.90;2.60;;;;;;;;;;10469033;28;20049;-71
2022/05/21 07:35:37;;;;;;;2.53;2.33;;;;;;;;;;10457230;28;20054;-70
2022/05/21 07:40:38;;;;;;;3.90;2.40;;;;;;;;;;10466390;28;20064;-70
2022/05/21 07:45:39;;;;;;;2.60;2.40;;;;;;;;;;10470117;28;20125;-71
2022/05/21 07:50:40;;;;;;;2.35;2.10;;;;;;;;;;10466556;28;20057;-72
2022/05/21 07:55:41;;;;;;;4.57;2.20;;;;;;;;;;10465996;28;20056;-73
2022/05/21 08:00:42;;;;;;;2.53;1.85;;;;;;;;;;10464454;28;20409;-75
2022/05/21 08:05:43;;;;;;;3.85;1.80;;;;;;;;;;10477314;28;20056;-71
2022/05/21 08:10:45;;;;;;;2.80;1.70;;;;;;;;;;10476584;28;20060;-75
2022/05/21 08:15:45;;;;;;;3.15;2.00;;;;;;;;;;10462809;28;20474;-71
2022/05/21 08:20:46;;;;;;;6.57;4.50;;;;;;;;;;10447570;28;20048;-77
2022/05/21 08:31:05;;;;;;;2.55;2.35;;;;;;;;;;10479382;28;20074;-73
2022/05/21 08:36:05;;;;;;;2.50;1.90;;;;;;;;;;10458351;28;20048;-75
2022/05/21 08:41:11;;;;;;;2.47;1.90;;;;;;;;;;10429317;28;20044;-73
2022/05/21 08:46:20;;;;;;;2.13;1.80;;;;;;;;;;10463541;28;20044;-75
2022/05/21 08:51:24;;;;;;;2.50;2.20;;;;;;;;;;10459465;28;20069;-74
2022/05/21 08:56:25;;;;;;;2.00;1.60;;;;;;;;;;10441073;28;20069;-75
2022/05/21 09:01:25;;;;;;;2.27;1.80;;;;;;;;;;10475704;28;20541;-74
2022/05/21 09:06:55;;;;;;;3.20;1.67;;;;;;;;;;10468930;28;20098;-76
2022/05/21 09:12:08;;;;;;;1.83;1.70;;;;;;;;;;10447605;28;20052;-76
2022/05/21 09:17:14;;;;;;;8.70;5.85;;;;;;;;;;10459068;28;20401;-79
2022/05/21 09:22:15;;;;;;;3.83;1.88;;;;;;;;;;10449763;28;20052;-77
2022/05/21 09:27:32;;;;;;;2.63;2.05;;;;;;;;;;10469401;28;20049;-76
2022/05/21 09:32:35;;;;;;;2.35;2.15;;;;;;;;;;10473310;28;20082;-76
2022/05/21 09:37:35;;;;;;;4.95;4.35;;;;;;;;;;10469822;28;20052;-72
2022/05/21 09:48:01;;;;;;;2.65;1.77;;;;;;;;;;10451756;28;20052;-72
2022/05/21 09:53:18;;;;;;;1.92;1.70;;;;;;;;;;10443641;28;20463;-75
2022/05/21 09:58:21;;;;;;;14.07;8.55;;;;;;;;;;10469337;28;20515;-75
2022/05/21 10:03:39;;;;;;;14.05;8.68;;;;;;;;;;10453407;28;20076;-74
2022/05/21 10:14:04;;;;;;;2.53;1.92;;;;;;;;;;10474760;28;20500;-76
2022/05/21 10:19:25;;;;;;;4.03;1.70;;;;;;;;;;10480037;28;20048;-76
2022/05/21 10:24:31;;;;;;;2.15;1.45;;;;;;;;;;10442702;28;20066;-78
2022/05/21 10:29:31;;;;;;;2.47;1.48;;;;;;;;;;10485304;28;20493;-72
2022/05/21 10:34:48;;;;;;;3.28;1.52;;;;;;;;;;10474697;28;20056;-74
2022/05/21 10:39:52;;;;;;;8.85;6.55;;;;;;;;;;10488752;28;20511;-78
2022/05/21 10:45:01;;;;;;;2.17;1.40;;;;;;;;;;10506108;28;20103;-72
2022/05/21 10:50:01;;;;;;;2.97;1.63;;;;;;;;;;10506663;28;20121;-76
2022/05/21 10:55:20;;;;;;;1.60;1.50;;;;;;;;;;10503392;28;20064;-75
2022/05/21 11:00:41;;;;;;;2.92;2.00;;;;;;;;;;10519193;28;20120;-75
2022/05/21 11:05:41;;;;;;;2.60;1.60;;;;;;;;;;10484268;28;20486;-73
2022/05/21 11:11:01;;;;;;;3.20;2.10;;;;;;;;;;10485070;28;20055;-75
2022/05/21 11:16:05;;;;;;;2.00;1.70;;;;;;;;;;10480211;28;20060;-78
2022/05/21 11:21:12;;;;;;;2.95;1.60;;;;;;;;;;10470989;28;20037;-75
2022/05/21 11:26:30;;;;;;;3.63;2.33;;;;;;;;;;10467906;28;20037;-70
2022/05/21 11:42:12;;;;;;;3.63;2.40;;;;;;;;;;10465159;28;20041;-76
2022/05/21 11:47:13;;;;;;;2.92;1.83;;;;;;;;;;10476161;28;20049;-78
2022/05/21 11:52:26;;;;;;;6.33;2.20;;;;;;;;;;10487888;28;20044;-76
2022/05/21 11:57:36;;;;;;;4.18;1.70;;;;;;;;;;10469815;28;20279;-73
2022/05/21 12:02:41;;;;;;;2.33;1.45;;;;;;;;;;10471595;28;20375;-76
2022/05/21 12:07:41;;;;;;;4.38;1.40;;;;;;;;;;10440578;28;20048;-71
2022/05/21 12:12:59;;;;;;;2.25;1.58;;;;;;;;;;10444437;28;20045;-73
2022/05/21 12:18:03;;;;;;;2.17;1.27;;;;;;;;;;10463535;28;20041;-73
2022/05/21 12:23:03;;;;;;;2.25;1.30;;;;;;;;;;10477549;28;20453;-72
2022/05/21 12:28:04;;;;;;;5.37;1.70;;;;;;;;;;10454040;28;20048;-73
2022/05/21 12:33:08;;;;;;;3.45;1.60;;;;;;;;;;10479875;28;20115;-73
2022/05/21 12:38:08;;;;;;;;;;;;;;;;;;10459274;28;20049;-75
2022/05/21 12:43:10;;;;;;;2.65;1.50;;;;;;;;;;10457696;28;19924;-74
2022/05/21 12:48:32;;;;;;;3.67;1.10;;;;;;;;;;10472944;28;20057;-76
2022/05/21 12:53:33;;;;;;;1.73;1.40;;;;;;;;;;10446777;28;20042;-73
2022/05/21 12:58:33;;;;;;;2.70;1.40;;;;;;;;;;10452449;28;20515;-74
2022/05/21 13:03:35;;;;;;;3.28;1.58;;;;;;;;;;10453686;28;20299;-74
2022/05/21 13:08:38;;;;;;;1.80;1.20;;;;;;;;;;10466013;28;20049;-74
2022/05/21 13:13:40;;;;;;;2.58;1.20;;;;;;;;;;10462880;28;20690;-77
2022/05/21 13:18:43;;;;;;;1.70;1.37;;;;;;;;;;10448742;28;20162;-76
2022/05/21 13:23:47;;;;;;;3.30;1.27;;;;;;;;;;10448459;28;20536;-75
2022/05/21 13:28:47;;;;;;;3.17;1.73;;;;;;;;;;10440855;28;20380;-80
2022/05/21 13:33:53;;;;;;;4.95;3.38;;;;;;;;;;10470120;28;20121;-78
2022/05/21 13:38:56;;;;;;;3.75;1.60;;;;;;;;;;10469812;28;20056;-75
2022/05/21 13:43:58;;;;;;;2.78;1.40;;;;;;;;;;10464667;28;20052;-73
2022/05/21 13:49:00;;;;;;;4.13;1.40;;;;;;;;;;10470793;28;20502;-76
2022/05/21 13:54:00;;;;;;;2.33;1.30;;;;;;;;;;10470373;28;20113;-76
2022/05/21 13:59:20;;;;;;;3.35;1.38;;;;;;;;;;10452038;28;20430;-75
2022/05/21 14:04:30;;;;;;;2.97;1.35;;;;;;;;;;10465110;28;20051;-73
2022/05/21 14:09:32;;;;;;;4.32;1.50;;;;;;;;;;10464959;28;20483;-73
2022/05/21 14:14:38;;;;;;;1.38;1.20;;;;;;;;;;10472819;28;20153;-74
2022/05/21 14:19:40;;;;;;;3.05;1.45;;;;;;;;;;10446310;28;20040;-77
2022/05/21 14:24:43;;;;;;;3.40;2.17;;;;;;;;;;10450755;28;20106;-80
2022/05/21 14:30:06;;;;;;;1.52;1.17;;;;;;;;;;10487357;28;20048;-78
2022/05/21 14:35:15;;;;;;;4.45;2.58;;;;;;;;;;10497674;28;20454;-75
2022/05/21 14:40:19;;;;;;;3.22;1.30;;;;;;;;;;10472449;28;20037;-70
2022/05/21 14:45:25;;;;;;;2.85;1.40;;;;;;;;;;10464732;28;20083;-71
2022/05/21 14:55:48;;;;;;;2.28;1.20;;;;;;;;;;10458912;28;20506;-73
2022/05/21 15:00:48;;;;;;;;;;;;;;;;;;10471147;28;20155;-72
2022/05/21 15:05:49;;;;;;;4.40;1.65;;;;;;;;;;10467263;28;19942;-72
2022/05/21 15:10:50;;;;;;;3.30;1.92;;;;;;;;;;10467125;28;20045;-72
2022/05/21 15:15:50;;;;;;;3.10;1.50;;;;;;;;;;10464681;28;20661;-73
2022/05/21 15:20:51;;;;;;;2.57;1.23;;;;;;;;;;10454924;28;20045;-74
2022/05/21 15:25:51;;;;;;;4.20;2.90;;;;;;;;;;10478893;28;20060;-74
2022/05/21 15:30:55;;;;;;;2.03;1.20;;;;;;;;;;10476528;28;20044;-73
2022/05/21 15:35:55;;;;;;;15.75;14.35;;;;;;;;;;10476494;28;20052;-75
2022/05/21 15:40:56;;;;;;;251.95;122.22;;;;;;;;;;10480647;28;20494;-74
2022/05/21 15:45:57;;;;;;;131.50;79.35;;;;;;;;;;10478865;28;20118;-75
2022/05/21 15:50:57;;;;;;;51.90;34.23;;;;;;;;;;10459020;28;20171;-72
2022/05/21 15:55:58;;;;;;;11.18;7.38;;;;;;;;;;10460568;28;20144;-74
2022/05/21 16:00:58;;;;;;;10.30;6.43;;;;;;;;;;10478968;28;20227;-72
2022/05/21 16:05:58;;;;;;;27.83;18.93;;;;;;;;;;10453016;28;20279;-77
2022/05/21 16:10:59;;;;;;;5.25;2.00;;;;;;;;;;10476135;28;20123;-75
2022/05/21 16:15:59;;;;;;;4.47;1.60;;;;;;;;;;10444838;28;20557;-73
2022/05/21 16:21:00;;;;;;;5.30;1.40;;;;;;;;;;10450280;28;20055;-72
2022/05/21 16:26:01;;;;;;;2.45;2.25;;;;;;;;;;10481017;28;20045;-73
2022/05/21 16:31:02;;;;;;;3.75;3.40;;;;;;;;;;10469003;28;20044;-75
2022/05/21 16:36:03;;;;;;;3.08;1.65;;;;;;;;;;10484055;28;20087;-76
2022/05/21 16:41:03;;;;;;;2.20;1.50;;;;;;;;;;10474853;28;20064;-71
2022/05/21 16:46:04;;;;;;;5.03;1.60;;;;;;;;;;10479244;28;20641;-73
2022/05/21 16:51:04;;;;;;;3.08;1.92;;;;;;;;;;10473119;28;20040;-73
2022/05/21 16:56:05;;;;;;;1.90;1.52;;;;;;;;;;10463961;28;20055;-76
2022/05/21 17:01:06;;;;;;;3.83;2.20;;;;;;;;;;10441887;28;20059;-70
2022/05/21 17:06:06;;;;;;;2.55;1.48;;;;;;;;;;10447479;28;20049;-73
2022/05/21 17:11:07;;;;;;;3.23;1.47;;;;;;;;;;10442925;28;20120;-70
2022/05/21 17:16:08;;;;;;;2.50;1.42;;;;;;;;;;10461243;28;20087;-75
2022/05/21 17:21:08;;;;;;;2.33;1.60;;;;;;;;;;10473658;28;20641;-75
2022/05/21 17:26:09;;;;;;;3.13;1.60;;;;;;;;;;10460008;28;20064;-72
2022/05/21 17:31:09;;;;;;;2.58;1.48;;;;;;;;;;10470244;28;20044;-71
2022/05/21 17:36:10;;;;;;;3.47;2.10;;;;;;;;;;10446784;28;20060;-70
2022/05/21 17:41:11;;;;;;;5.30;1.58;;;;;;;;;;10464761;28;20044;-74
2022/05/21 17:46:15;;;;;;;2.67;1.50;;;;;;;;;;10450665;28;20207;-71
2022/05/21 17:51:15;;;;;;;2.03;1.52;;;;;;;;;;10474922;28;20123;-73
2022/05/21 17:56:17;;;;;;;4.47;1.80;;;;;;;;;;10478501;28;20048;-70
2022/05/21 18:01:20;;;;;;;3.80;2.00;;;;;;;;;;10459322;28;20370;-74
2022/05/21 18:06:21;;;;;;;3.17;1.77;;;;;;;;;;10461926;28;20127;-72
2022/05/21 18:11:22;;;;;;;3.42;1.90;;;;;;;;;;10454517;28;20105;-73
2022/05/21 18:21:41;;;;;;;3.05;1.92;;;;;;;;;;10447955;28;20056;-75
2022/05/21 18:26:41;;;;;;;2.87;1.77;;;;;;;;;;10469973;28;20114;-75
2022/05/21 18:31:43;;;;;;;2.27;1.70;;;;;;;;;;10448391;28;20275;-75
2022/05/21 18:36:45;;;;;;;1.70;1.58;;;;;;;;;;10440922;28;20147;-77
2022/05/21 18:41:46;;;;;;;1.70;1.30;;;;;;;;;;10485021;28;20056;-76
2022/05/21 18:46:46;;;;;;;1.95;1.58;;;;;;;;;;10480028;28;20045;-77
2022/05/21 18:51:47;;;;;;;4.27;2.20;;;;;;;;;;10475471;28;20090;-77
2022/05/21 18:56:49;;;;;;;4.23;1.83;;;;;;;;;;10491464;28;20075;-80
2022/05/21 19:01:49;;;;;;;3.05;1.90;;;;;;;;;;10496163;28;20082;-78
2022/05/21 19:06:50;;;;;;;6.15;2.35;;;;;;;;;;10478340;28;20135;-75
2022/05/21 19:11:50;;;;;;;2.63;1.80;;;;;;;;;;10472291;28;20052;-78
2022/05/21 19:16:50;;;;;;;4.47;2.70;;;;;;;;;;10480997;28;20309;-78
2022/05/21 19:21:52;;;;;;;4.85;2.88;;;;;;;;;;10480423;28;20389;-79
2022/05/21 19:26:55;;;;;;;3.65;2.10;;;;;;;;;;10504772;28;20021;-78
2022/05/21 19:31:56;;;;;;;3.47;2.28;;;;;;;;;;10481044;28;20043;-77
2022/05/21 19:36:58;;;;;;;5.13;2.55;;;;;;;;;;10451488;28;20071;-77
2022/05/21 19:42:00;;;;;;;4.03;2.40;;;;;;;;;;10465987;28;20040;-78
2022/05/21 19:47:00;;;;;;;6.45;3.10;;;;;;;;;;10470776;28;20104;-77
2022/05/21 19:52:01;;;;;;;3.53;3.10;;;;;;;;;;10452917;28;20129;-78
2022/05/21 19:57:01;;;;;;;3.50;2.83;;;;;;;;;;10449317;28;20048;-77
2022/05/21 20:02:02;;;;;;;3.78;2.42;;;;;;;;;;10489814;28;20090;-77
2022/05/21 20:07:04;;;;;;;4.18;3.28;;;;;;;;;;10458016;28;20040;-76
2022/05/21 20:12:04;;;;;;;4.18;3.03;;;;;;;;;;10475757;28;20170;-77
2022/05/21 20:17:05;;;;;;;4.18;2.83;;;;;;;;;;10468813;28;20131;-78
2022/05/21 20:22:05;;;;;;;3.33;2.60;;;;;;;;;;10466848;28;20120;-77
2022/05/21 20:27:06;;;;;;;4.15;2.85;;;;;;;;;;10482133;28;20080;-77
2022/05/21 20:32:07;;;;;;;4.53;3.38;;;;;;;;;;10482788;28;20718;-76
2022/05/21 20:37:07;;;;;;;4.90;3.22;;;;;;;;;;10466063;28;20056;-76
2022/05/21 20:42:10;;;;;;;4.38;3.60;;;;;;;;;;10470678;28;20063;-78
2022/05/21 20:47:13;;;;;;;4.63;4.15;;;;;;;;;;10445942;28;20045;-75
2022/05/21 20:52:15;;;;;;;5.65;4.60;;;;;;;;;;10462442;28;20083;-77
2022/05/21 20:57:20;;;;;;;5.50;4.68;;;;;;;;;;10475779;28;20497;-77
2022/05/21 21:02:20;;;;;;;4.30;3.90;;;;;;;;;;10466951;28;20425;-77
2022/05/21 21:07:21;;;;;;;6.13;3.40;;;;;;;;;;10468908;28;20062;-75
2022/05/21 21:12:21;;;;;;;5.07;3.60;;;;;;;;;;10470361;28;20287;-78
2022/05/21 21:17:21;;;;;;;6.10;3.85;;;;;;;;;;10466467;28;20049;-74
2022/05/21 21:22:22;;;;;;;5.37;4.37;;;;;;;;;;10450561;28;20371;-77
2022/05/21 21:27:22;;;;;;;4.57;4.07;;;;;;;;;;10478350;28;20045;-76
2022/05/21 21:32:22;;;;;;;3.83;3.43;;;;;;;;;;10443267;28;20702;-76
2022/05/21 21:37:23;;;;;;;5.77;4.50;;;;;;;;;;10450389;28;20275;-76
2022/05/21 21:42:23;;;;;;;5.88;4.05;;;;;;;;;;10465638;28;20040;-76
2022/05/21 21:47:24;;;;;;;5.72;4.20;;;;;;;;;;10456892;28;20151;-77
2022/05/21 21:52:24;;;;;;;6.18;4.57;;;;;;;;;;10416254;28;20041;-75
2022/05/21 21:57:25;;;;;;;4.85;3.92;;;;;;;;;;10411740;28;20056;-78
2022/05/21 22:02:26;;;;;;;7.72;6.18;;;;;;;;;;10462155;28;20038;-77
2022/05/21 22:07:27;;;;;;;9.82;5.63;;;;;;;;;;10443830;28;20048;-77
2022/05/21 22:12:27;;;;;;;5.10;4.25;;;;;;;;;;10472427;28;20115;-76
2022/05/21 22:17:27;;;;;;;7.27;4.77;;;;;;;;;;10463014;28;20131;-77
2022/05/21 22:22:28;;;;;;;5.60;4.85;;;;;;;;;;10456560;28;20832;-76
2022/05/21 22:27:31;;;;;;;;;;;;;;;;;;10439170;28;20040;-76
2022/05/21 22:32:31;;;;;;;6.72;4.55;;;;;;;;;;10483011;28;20441;-77
2022/05/21 22:37:39;;;;;;;5.68;4.45;;;;;;;;;;10504009;28;20036;-75
2022/05/21 22:42:39;;;;;;;5.97;4.93;;;;;;;;;;10483938;28;20059;-78
2022/05/21 22:47:40;;;;;;;6.70;5.40;;;;;;;;;;10446763;28;20503;-76
2022/05/21 22:52:43;;;;;;;9.25;5.53;;;;;;;;;;10472113;28;20311;-77
2022/05/21 22:57:44;;;;;;;6.50;4.97;;;;;;;;;;10470122;28;20862;-77
2022/05/21 23:02:44;;;;;;;6.22;5.35;;;;;;;;;;10468037;28;20049;-77
2022/05/21 23:07:49;;;;;;;6.05;4.22;;;;;;;;;;10463309;28;20053;-76
2022/05/21 23:12:49;;;;;;;6.60;4.90;;;;;;;;;;10471943;28;20040;-78
2022/05/21 23:23:10;;;;;;;6.60;5.38;;;;;;;;;;10481085;28;20154;-76
2022/05/21 23:28:11;;;;;;;7.30;5.90;;;;;;;;;;10460975;28;20036;-76
2022/05/21 23:33:11;;;;;;;6.68;5.78;;;;;;;;;;10460167;28;20044;-78
2022/05/21 23:38:12;;;;;;;6.83;5.60;;;;;;;;;;10481585;28;20075;-77
2022/05/21 23:43:12;;;;;;;11.10;6.15;;;;;;;;;;10470093;28;20271;-77
2022/05/21 23:48:12;;;;;;;7.30;5.45;;;;;;;;;;10483590;28;20202;-77
2022/05/21 23:53:13;;;;;;;7.63;5.03;;;;;;;;;;10474319;28;20047;-77
2022/05/21 23:58:14;;;;;;;4.93;4.43;;;;;;;;;;10484548;28;20113;-78
